Time;durP1;ratioP1;P1;durP2;ratioP2;P2;SDS_P1;SDS_P2;PMS_P1;PMS_P2;Temp;Humidity;BMP_temperature;BMP_pressure;BME280_temperature;BME280_humidity;BME280_pressure;Samples;Min_cycle;Max_cycle;Signal;HPM_P1;HPM_P2
2021/12/25 00:00:15;;;;;;;6.82;6.22;;;9.00;99.90;;;;;;5023521;28;20439;-76
2021/12/25 00:02:41;;;;;;;8.65;7.05;;;9.00;99.90;;;;;;5026614;28;20022;-77
2021/12/25 00:05:08;;;;;;;10.63;6.75;;;9.00;99.90;;;;;;5022884;28;20029;-78
2021/12/25 00:07:33;;;;;;;7.57;5.95;;;9.00;99.90;;;;;;5022741;28;20548;-77
2021/12/25 00:10:00;;;;;;;8.55;5.75;;;9.00;99.90;;;;;;5044502;28;20042;-77
2021/12/25 00:12:26;;;;;;;5.72;5.20;;;9.00;99.90;;;;;;5032202;28;20034;-77
2021/12/25 00:14:52;;;;;;;8.68;5.25;;;9.20;99.90;;;;;;5025298;28;20029;-76
2021/12/25 00:17:18;;;;;;;6.35;5.72;;;9.30;99.90;;;;;;5022994;28;20026;-76
2021/12/25 00:19:44;;;;;;;6.85;6.03;;;9.20;99.90;;;;;;5022628;28;20457;-76
2021/12/25 00:22:10;;;;;;;7.13;6.50;;;9.10;99.90;;;;;;5025898;28;20451;-76
2021/12/25 00:24:41;;;;;;;7.93;6.40;;;9.20;99.90;;;;;;5028537;28;20017;-77
2021/12/25 00:27:22;;;;;;;8.07;6.43;;;9.10;99.90;;;;;;5024691;28;20080;-76
2021/12/25 00:29:56;;;;;;;6.82;6.15;;;9.10;99.90;;;;;;5022030;28;20030;-77
2021/12/25 00:34:48;;;;;;;7.63;6.38;;;9.30;99.90;;;;;;5021127;28;20022;-77
2021/12/25 00:37:14;;;;;;;7.18;6.47;;;9.40;99.90;;;;;;5024909;28;20125;-77
2021/12/25 00:39:42;;;;;;;6.40;5.80;;;9.30;99.90;;;;;;5026836;28;20037;-76
2021/12/25 00:42:09;;;;;;;7.20;6.45;;;9.20;99.90;;;;;;5024256;28;20486;-77
2021/12/25 00:44:34;;;;;;;11.25;7.15;;;9.10;99.90;;;;;;5027150;28;20096;-76
2021/12/25 00:47:01;;;;;;;7.13;6.40;;;9.00;99.90;;;;;;5021413;28;20438;-77
2021/12/25 00:49:27;;;;;;;9.60;6.47;;;9.00;99.90;;;;;;5027342;28;20104;-76
2021/12/25 00:51:52;;;;;;;10.10;8.05;;;8.90;99.90;;;;;;5022407;28;20021;-76
2021/12/25 00:54:18;;;;;;;7.15;6.45;;;8.90;99.90;;;;;;5027267;28;20083;-77
2021/12/25 00:56:44;;;;;;;10.40;6.85;;;8.90;99.90;;;;;;5027692;28;20060;-76
2021/12/25 00:59:09;;;;;;;9.57;7.50;;;8.80;99.90;;;;;;5023975;28;20036;-76
2021/12/25 01:01:36;;;;;;;7.35;6.65;;;8.80;99.90;;;;;;5025105;28;20109;-76
2021/12/25 01:04:01;;;;;;;7.47;6.78;;;8.80;99.90;;;;;;5023733;28;20022;-77
2021/12/25 01:06:27;;;;;;;7.70;6.97;;;8.80;99.90;;;;;;5023509;28;20021;-76
2021/12/25 01:08:52;;;;;;;7.57;6.70;;;8.80;99.90;;;;;;5025304;28;20074;-76
2021/12/25 01:11:18;;;;;;;7.70;6.80;;;8.70;99.90;;;;;;5022761;28;20044;-76
2021/12/25 01:13:51;;;;;;;8.05;7.28;;;8.80;99.90;;;;;;5022646;28;20083;-77
2021/12/25 01:22:03;;;;;;;13.50;8.27;;;8.80;99.90;;;;;;5024002;28;20063;-77
2021/12/25 01:24:50;;;;;;;8.73;7.70;;;8.80;99.90;;;;;;5007626;28;20018;-76
2021/12/25 01:30:06;;;;;;;8.32;7.32;;;8.70;99.90;;;;;;5027998;28;20363;-74
2021/12/25 01:38:22;;;;;;;8.80;7.75;;;8.90;99.90;;;;;;5013160;28;20115;-73
2021/12/25 01:49:00;;;;;;;15.05;9.48;;;8.70;99.90;;;;;;5013118;28;20549;-74
2021/12/25 01:51:25;;;;;;;11.38;9.52;;;8.70;99.90;;;;;;5025236;28;20021;-74
2021/12/25 01:53:51;;;;;;;9.95;8.77;;;8.70;99.90;;;;;;5024496;28;20512;-74
2021/12/25 01:56:17;;;;;;;11.32;9.70;;;8.70;99.90;;;;;;5016518;28;20036;-73
2021/12/25 01:58:42;;;;;;;10.60;9.50;;;8.70;99.90;;;;;;5016556;28;20030;-72
2021/12/25 02:01:10;;;;;;;11.50;10.25;;;8.70;99.90;;;;;;5027584;28;20045;-74
2021/12/25 02:03:38;;;;;;;10.93;9.80;;;8.70;99.90;;;;;;5021392;28;20049;-74
2021/12/25 02:06:08;;;;;;;10.57;9.43;;;8.70;99.90;;;;;;5025928;28;20519;-74
2021/12/25 02:08:34;;;;;;;11.35;9.40;;;8.60;99.90;;;;;;5024211;28;20029;-74
2021/12/25 02:11:00;;;;;;;14.73;10.32;;;8.60;99.90;;;;;;5035472;28;20041;-74
2021/12/25 02:13:26;;;;;;;13.48;9.57;;;8.60;99.90;;;;;;5028649;28;20034;-73
2021/12/25 02:15:56;;;;;;;13.35;10.13;;;8.60;99.90;;;;;;5020817;28;20097;-73
2021/12/25 02:18:28;;;;;;;11.93;10.17;;;8.60;99.90;;;;;;5017986;28;20120;-79
2021/12/25 02:23:22;;;;;;;11.77;9.25;;;8.60;99.90;;;;;;5028366;28;20030;-76
2021/12/25 02:25:54;;;;;;;14.18;9.93;;;8.50;99.90;;;;;;5015087;28;20040;-74
2021/12/25 02:28:20;;;;;;;10.65;9.52;;;8.60;99.90;;;;;;5020197;28;20022;-72
2021/12/25 02:30:48;;;;;;;11.20;10.00;;;8.50;99.90;;;;;;5015180;28;20068;-73
2021/12/25 02:33:16;;;;;;;11.52;9.63;;;8.50;99.90;;;;;;5019675;28;20029;-73
2021/12/25 02:35:42;;;;;;;13.90;10.50;;;8.50;99.90;;;;;;5020793;28;20528;-73
2021/12/25 02:38:08;;;;;;;13.23;10.77;;;8.50;99.90;;;;;;5017579;28;20029;-73
2021/12/25 02:40:34;;;;;;;12.50;11.18;;;8.50;99.90;;;;;;5019957;28;20398;-72
2021/12/25 02:42:59;;;;;;;14.90;11.27;;;8.50;99.90;;;;;;5025545;28;20030;-73
2021/12/25 02:45:26;;;;;;;13.18;11.32;;;8.50;99.90;;;;;;5019987;28;20049;-72
2021/12/25 02:47:55;;;;;;;13.63;11.38;;;8.50;99.90;;;;;;5024788;28;20029;-72
2021/12/25 02:50:29;;;;;;;13.00;11.73;;;8.50;99.90;;;;;;5018963;28;20022;-74
2021/12/25 02:52:56;;;;;;;12.55;10.90;;;8.50;99.90;;;;;;5025040;28;20017;-73
2021/12/25 02:55:22;;;;;;;13.52;10.50;;;8.50;99.90;;;;;;5017802;28;20029;-75
2021/12/25 02:57:52;;;;;;;11.15;9.77;;;8.50;99.90;;;;;;5021895;28;20041;-72
2021/12/25 03:00:25;;;;;;;11.57;10.47;;;8.50;99.90;;;;;;5021233;28;20045;-73
2021/12/25 03:02:51;;;;;;;11.15;9.93;;;8.60;99.90;;;;;;5014856;28;20029;-75
2021/12/25 03:05:17;;;;;;;9.45;8.55;;;8.60;99.90;;;;;;5019449;28;20022;-73
2021/12/25 03:07:43;;;;;;;12.15;10.20;;;8.70;99.90;;;;;;5022224;28;20013;-72
2021/12/25 03:10:11;;;;;;;10.77;9.15;;;8.90;99.90;;;;;;5022869;28;20140;-74
2021/12/25 03:12:48;;;;;;;10.05;8.77;;;8.90;99.90;;;;;;5021869;28;20508;-72
2021/12/25 03:15:20;;;;;;;11.25;9.23;;;8.80;99.90;;;;;;5019393;28;20029;-71
2021/12/25 03:17:46;;;;;;;12.25;9.18;;;8.60;99.90;;;;;;5020512;28;20075;-73
2021/12/25 03:20:12;;;;;;;10.90;9.07;;;8.50;99.90;;;;;;5019310;28;20422;-72
2021/12/25 03:22:39;;;;;;;9.43;8.38;;;8.50;99.90;;;;;;5030254;28;20461;-71
2021/12/25 03:25:10;;;;;;;10.13;8.60;;;8.40;99.90;;;;;;5022954;28;20057;-71
2021/12/25 03:27:37;;;;;;;9.13;8.23;;;8.40;99.90;;;;;;5036310;28;20018;-71
2021/12/25 03:30:06;;;;;;;10.80;9.70;;;8.40;99.90;;;;;;5034142;28;20014;-73
2021/12/25 03:32:32;;;;;;;10.75;8.93;;;8.40;99.90;;;;;;5029570;28;20064;-71
2021/12/25 03:34:57;;;;;;;11.18;9.75;;;8.40;99.90;;;;;;5025298;28;20042;-73
2021/12/25 03:37:23;;;;;;;13.02;9.75;;;8.30;99.90;;;;;;5024547;28;20030;-74
2021/12/25 03:39:48;;;;;;;12.32;10.73;;;8.30;99.90;;;;;;5013473;28;20567;-73
2021/12/25 03:42:14;;;;;;;12.50;11.20;;;8.30;99.90;;;;;;5017277;28;20030;-74
2021/12/25 03:44:39;;;;;;;12.52;10.85;;;8.30;99.90;;;;;;5022646;28;20041;-76
2021/12/25 03:47:25;;;;;;;10.77;9.68;;;8.30;99.90;;;;;;5021204;28;20046;-74
2021/12/25 03:58:08;;;;;;;8.32;6.45;;;8.50;99.90;;;;;;5013243;28;20136;-73
2021/12/25 04:00:36;;;;;;;6.55;5.88;;;8.50;99.90;;;;;;5017934;28;20022;-74
2021/12/25 04:03:05;;;;;;;6.55;5.80;;;8.50;99.90;;;;;;5020152;28;20034;-73
2021/12/25 04:05:34;;;;;;;5.97;5.25;;;8.50;99.90;;;;;;5022621;28;20018;-74
2021/12/25 04:10:27;;;;;;;6.38;5.13;;;8.60;99.90;;;;;;5033583;28;20022;-72
2021/12/25 04:12:53;;;;;;;5.35;4.70;;;8.60;99.90;;;;;;5044099;28;20041;-72
2021/12/25 04:15:19;;;;;;;6.07;5.40;;;8.60;99.90;;;;;;5017064;28;20116;-72
2021/12/25 04:17:44;;;;;;;4.78;4.30;;;8.60;99.90;;;;;;5024780;28;20457;-75
2021/12/25 04:20:11;;;;;;;5.03;4.03;;;8.60;99.90;;;;;;5017913;28;20032;-72
2021/12/25 04:22:51;;;;;;;4.97;4.25;;;8.70;99.90;;;;;;5015018;28;20125;-72
2021/12/25 04:25:23;;;;;;;6.15;4.57;;;8.70;99.90;;;;;;5022290;28;20125;-72
2021/12/25 04:27:49;;;;;;;6.30;5.50;;;8.90;99.90;;;;;;5013136;28;20104;-74
2021/12/25 05:05:49;;;;;;;7.00;6.40;;;8.60;99.90;;;;;;5019687;28;20097;-73
2021/12/25 05:08:14;;;;;;;8.05;7.22;;;8.40;99.90;;;;;;5024451;28;20018;-73
2021/12/25 05:10:40;;;;;;;7.40;6.70;;;8.40;99.90;;;;;;5024849;28;20526;-75
2021/12/25 05:13:06;;;;;;;8.95;7.63;;;8.40;99.90;;;;;;5022727;28;20037;-74
2021/12/25 05:15:32;;;;;;;7.88;7.07;;;8.40;99.90;;;;;;5028378;28;20060;-70
2021/12/25 05:17:58;;;;;;;8.13;6.85;;;8.40;99.90;;;;;;5019098;28;20113;-73
2021/12/25 05:20:24;;;;;;;8.07;7.28;;;8.40;99.90;;;;;;5028412;28;20060;-73
2021/12/25 05:22:50;;;;;;;9.05;6.43;;;8.40;99.90;;;;;;5015996;28;20021;-73
2021/12/25 05:25:15;;;;;;;6.90;6.03;;;8.30;99.90;;;;;;5023116;28;20029;-72
2021/12/25 05:27:41;;;;;;;10.10;6.38;;;8.40;99.90;;;;;;5025644;28;20052;-74
2021/12/25 05:30:08;;;;;;;7.47;6.75;;;8.30;99.90;;;;;;5024478;28;20091;-73
2021/12/25 05:32:33;;;;;;;8.25;5.78;;;8.30;99.90;;;;;;5019311;28;20040;-73
2021/12/25 05:34:59;;;;;;;6.55;5.95;;;8.30;99.90;;;;;;5023814;28;20022;-72
2021/12/25 05:37:25;;;;;;;6.40;5.50;;;8.30;99.90;;;;;;5024183;28;20509;-72
2021/12/25 05:39:51;;;;;;;6.43;5.80;;;8.30;99.90;;;;;;5018004;28;20026;-73
2021/12/25 05:42:22;;;;;;;7.55;5.68;;;8.30;99.90;;;;;;5022642;28;20491;-71
2021/12/25 05:44:48;;;;;;;8.85;6.18;;;8.40;99.90;;;;;;5016574;28;20084;-74
2021/12/25 05:47:14;;;;;;;6.55;5.43;;;8.40;99.90;;;;;;5012823;28;20437;-72
2021/12/25 05:49:40;;;;;;;6.13;4.38;;;8.40;99.90;;;;;;5021071;28;20018;-73
2021/12/25 05:52:06;;;;;;;5.53;4.43;;;8.40;99.90;;;;;;5017073;28;20037;-72
2021/12/25 05:54:32;;;;;;;4.15;3.70;;;8.40;99.90;;;;;;5021711;28;20017;-73
2021/12/25 05:56:58;;;;;;;3.85;2.45;;;8.40;99.90;;;;;;5028379;28;20529;-72
2021/12/25 05:59:23;;;;;;;3.88;2.70;;;8.40;99.90;;;;;;5020171;28;20029;-72
2021/12/25 06:01:49;;;;;;;3.25;2.75;;;8.50;99.90;;;;;;5026321;28;20445;-74
2021/12/25 06:04:14;;;;;;;3.25;2.95;;;8.50;99.90;;;;;;5021963;28;20030;-73
2021/12/25 06:06:40;;;;;;;4.13;2.58;;;8.50;99.90;;;;;;5025948;28;20021;-73
2021/12/25 06:09:07;;;;;;;2.97;2.60;;;8.60;99.90;;;;;;5038247;28;20018;-70
2021/12/25 06:11:35;;;;;;;2.90;2.60;;;8.70;99.90;;;;;;5034261;28;20448;-72
2021/12/25 06:14:16;;;;;;;3.28;2.97;;;8.60;99.90;;;;;;5019209;28;20106;-73
2021/12/25 06:16:42;;;;;;;;;;;8.60;99.90;;;;;;5023128;28;20089;-73
2021/12/25 06:19:07;;;;;;;4.43;3.47;;;8.60;99.90;;;;;;5020844;28;19962;-73
2021/12/25 06:21:33;;;;;;;5.70;4.45;;;8.70;99.90;;;;;;5021804;28;20029;-73
2021/12/25 06:24:01;;;;;;;4.88;4.15;;;8.70;99.90;;;;;;5017827;28;20549;-74
2021/12/25 06:26:28;;;;;;;4.50;4.10;;;8.70;99.90;;;;;;5020986;28;20018;-73
2021/12/25 06:28:54;;;;;;;6.70;4.90;;;8.80;99.90;;;;;;5018180;28;20038;-74
2021/12/25 06:31:20;;;;;;;4.88;4.38;;;8.80;99.90;;;;;;5018333;28;20031;-73
2021/12/25 06:33:45;;;;;;;6.18;4.90;;;8.70;99.90;;;;;;5024455;28;20086;-71
2021/12/25 06:36:11;;;;;;;6.80;5.25;;;8.70;99.90;;;;;;5022710;28;20040;-72
2021/12/25 06:38:39;;;;;;;6.60;6.00;;;8.70;99.90;;;;;;5030353;28;20401;-77
2021/12/25 06:41:05;;;;;;;5.85;4.88;;;8.60;99.90;;;;;;5013386;28;20470;-74
2021/12/25 06:43:30;;;;;;;6.40;5.07;;;8.70;99.90;;;;;;5022375;28;20029;-72
2021/12/25 06:45:56;;;;;;;4.90;4.43;;;8.70;99.90;;;;;;5021900;28;20466;-72
2021/12/25 06:48:22;;;;;;;5.25;4.75;;;8.60;99.90;;;;;;5018943;28;20405;-73
2021/12/25 06:50:47;;;;;;;5.38;4.65;;;8.60;99.90;;;;;;5023798;28;20055;-73
2021/12/25 06:53:13;;;;;;;5.20;4.65;;;8.60;99.90;;;;;;5017533;28;20080;-73
2021/12/25 06:55:38;;;;;;;6.00;5.13;;;8.60;99.90;;;;;;5019806;28;20025;-72
2021/12/25 06:58:04;;;;;;;5.22;4.72;;;8.60;99.90;;;;;;5020689;28;20077;-74
2021/12/25 07:00:30;;;;;;;5.43;4.85;;;8.60;99.90;;;;;;5021097;28;20036;-74
2021/12/25 07:02:57;;;;;;;5.13;4.63;;;8.60;99.90;;;;;;5023002;28;20034;-75
2021/12/25 07:05:23;;;;;;;6.15;4.32;;;8.70;99.90;;;;;;5023143;28;20063;-73
2021/12/25 07:07:50;;;;;;;6.63;3.83;;;8.70;99.90;;;;;;5023835;28;20014;-73
2021/12/25 07:10:15;;;;;;;5.10;3.00;;;8.80;99.90;;;;;;5021789;28;20026;-73
2021/12/25 07:12:45;;;;;;;3.83;2.97;;;8.90;99.90;;;;;;5025535;28;20037;-72
2021/12/25 07:15:11;;;;;;;4.32;3.40;;;9.00;99.90;;;;;;5020305;28;20510;-72
2021/12/25 07:17:36;;;;;;;4.63;3.05;;;9.00;99.90;;;;;;5022813;28;20021;-74
2021/12/25 07:20:03;;;;;;;4.20;3.00;;;9.10;99.90;;;;;;5020510;28;20053;-73
2021/12/25 07:22:28;;;;;;;4.05;3.05;;;9.10;99.90;;;;;;5018739;28;20036;-72
2021/12/25 07:24:54;;;;;;;3.45;3.15;;;9.20;99.90;;;;;;5017773;28;20096;-73
2021/12/25 07:27:20;;;;;;;3.58;3.15;;;9.20;99.90;;;;;;5020405;28;20080;-75
2021/12/25 07:29:45;;;;;;;3.55;3.22;;;9.20;99.90;;;;;;5014060;28;20018;-72
2021/12/25 07:32:11;;;;;;;4.93;3.45;;;9.20;99.90;;;;;;5018162;28;20038;-74
2021/12/25 07:34:36;;;;;;;3.42;3.08;;;9.30;99.90;;;;;;5021758;28;20022;-73
2021/12/25 07:37:03;;;;;;;3.67;3.03;;;9.30;99.90;;;;;;5019018;28;20109;-72
2021/12/25 07:39:29;;;;;;;3.90;3.33;;;9.30;99.90;;;;;;5024322;28;20439;-72
2021/12/25 07:41:55;;;;;;;4.10;3.00;;;9.20;99.90;;;;;;5020855;28;20030;-74
2021/12/25 07:44:20;;;;;;;4.13;3.13;;;9.20;99.90;;;;;;5021751;28;20404;-73
2021/12/25 07:46:47;;;;;;;3.92;3.28;;;9.30;99.90;;;;;;5008134;28;20052;-73
2021/12/25 07:49:18;;;;;;;4.55;4.15;;;9.30;99.90;;;;;;5008646;28;20022;-73
2021/12/25 07:51:43;;;;;;;5.85;3.70;;;9.30;99.90;;;;;;5021273;28;20071;-72
2021/12/25 07:54:09;;;;;;;3.35;2.75;;;9.20;99.90;;;;;;5016405;28;20117;-72
2021/12/25 07:56:35;;;;;;;4.10;3.13;;;9.30;99.90;;;;;;5018087;28;20093;-74
2021/12/25 07:59:01;;;;;;;3.85;3.10;;;9.30;99.90;;;;;;5025532;28;20044;-72
2021/12/25 08:01:26;;;;;;;3.42;3.13;;;9.30;99.90;;;;;;5019634;28;20022;-71
2021/12/25 08:03:52;;;;;;;4.43;2.97;;;9.30;99.90;;;;;;5017162;28;20022;-73
2021/12/25 08:06:17;;;;;;;3.20;2.67;;;9.20;99.90;;;;;;5027670;28;20037;-73
2021/12/25 08:08:43;;;;;;;4.35;3.13;;;9.30;99.90;;;;;;5027046;28;20049;-71
2021/12/25 08:11:09;;;;;;;4.25;3.15;;;9.30;99.90;;;;;;5030682;28;20522;-73
2021/12/25 08:13:35;;;;;;;3.35;3.00;;;9.30;99.90;;;;;;5022843;28;20470;-73
2021/12/25 08:16:00;;;;;;;3.45;3.15;;;9.30;99.90;;;;;;5019578;28;20506;-73
2021/12/25 08:18:26;;;;;;;3.17;2.88;;;9.30;99.90;;;;;;5024474;28;20108;-72
2021/12/25 08:20:51;;;;;;;4.55;3.10;;;9.30;99.90;;;;;;5014165;28;20533;-75
2021/12/25 08:23:17;;;;;;;3.10;2.80;;;9.30;99.90;;;;;;5023069;28;20033;-72
2021/12/25 08:25:43;;;;;;;4.63;3.45;;;9.30;99.90;;;;;;5026975;28;20068;-73
2021/12/25 08:28:09;;;;;;;3.00;2.70;;;9.40;99.90;;;;;;5024326;28;20018;-74
2021/12/25 08:30:35;;;;;;;3.50;2.72;;;9.40;99.90;;;;;;5017151;28;20165;-74
2021/12/25 08:33:01;;;;;;;3.53;2.65;;;9.40;99.90;;;;;;5024658;28;20096;-74
2021/12/25 08:35:28;;;;;;;4.05;3.65;;;9.40;99.90;;;;;;5018871;28;20619;-75
2021/12/25 08:37:55;;;;;;;3.20;2.90;;;9.50;99.90;;;;;;5019718;28;20068;-74
2021/12/25 08:40:23;;;;;;;4.00;3.53;;;9.50;99.90;;;;;;5024073;28;20025;-75
2021/12/25 08:42:53;;;;;;;4.88;3.92;;;9.50;99.90;;;;;;5015371;28;20025;-75
2021/12/25 08:46:13;;;;;;;3.13;2.78;;;9.50;99.90;;;;;;5022859;28;20382;-75
2021/12/25 08:48:09;;;;;;;5.20;3.08;;;9.50;99.90;;;;;;5021551;28;20026;-75
2021/12/25 08:50:35;;;;;;;3.17;2.88;;;9.60;99.90;;;;;;5016831;28;20444;-75
2021/12/25 08:53:00;;;;;;;3.17;2.70;;;9.60;99.90;;;;;;5024196;28;20026;-74
2021/12/25 08:55:26;;;;;;;3.67;3.08;;;9.60;99.90;;;;;;5021852;28;20044;-74
2021/12/25 08:57:51;;;;;;;2.97;2.30;;;9.60;99.90;;;;;;5021246;28;20462;-74
2021/12/25 09:00:19;;;;;;;3.25;2.90;;;9.70;99.90;;;;;;5028985;28;20033;-75
2021/12/25 09:02:45;;;;;;;3.17;2.88;;;9.70;99.90;;;;;;5015627;28;20394;-73
2021/12/25 09:05:11;;;;;;;3.53;2.45;;;9.70;99.90;;;;;;5027450;28;20036;-73
2021/12/25 09:07:37;;;;;;;3.30;2.80;;;9.80;99.90;;;;;;5025439;28;20013;-75
2021/12/25 09:10:04;;;;;;;4.30;2.90;;;9.80;99.90;;;;;;5023418;28;20041;-74
2021/12/25 09:12:32;;;;;;;3.72;3.00;;;9.80;99.90;;;;;;5020182;28;20768;-74
2021/12/25 09:14:57;;;;;;;4.03;3.63;;;9.80;99.90;;;;;;5022945;28;20036;-74
2021/12/25 09:17:23;;;;;;;5.22;3.60;;;9.80;99.90;;;;;;5023964;28;20545;-74
2021/12/25 09:19:48;;;;;;;4.55;3.50;;;9.70;99.90;;;;;;5024304;28;20108;-74
2021/12/25 09:22:14;;;;;;;3.60;3.30;;;9.70;99.90;;;;;;5022694;28;20489;-74
2021/12/25 09:24:41;;;;;;;4.47;3.60;;;9.80;99.90;;;;;;5025576;28;20026;-74
2021/12/25 09:27:07;;;;;;;4.38;3.53;;;9.70;99.90;;;;;;5024008;28;20053;-75
2021/12/25 09:29:33;;;;;;;3.35;3.03;;;9.70;99.90;;;;;;5022627;28;20477;-76
2021/12/25 09:32:00;;;;;;;4.70;3.45;;;9.70;99.90;;;;;;5014134;28;20033;-74
2021/12/25 09:34:26;;;;;;;3.70;3.20;;;9.60;99.90;;;;;;5027795;28;20018;-75
2021/12/25 09:36:51;;;;;;;4.80;3.78;;;9.70;99.90;;;;;;5021900;28;20490;-74
2021/12/25 09:39:17;;;;;;;4.00;2.97;;;9.70;99.90;;;;;;5017372;28;20067;-75
2021/12/25 09:41:43;;;;;;;3.63;3.00;;;9.70;99.90;;;;;;5017039;28;20033;-75
2021/12/25 09:44:08;;;;;;;2.75;2.03;;;9.70;99.90;;;;;;5021742;28;20034;-75
2021/12/25 09:46:34;;;;;;;3.78;2.50;;;9.80;99.90;;;;;;5013749;28;20025;-75
2021/12/25 09:49:00;;;;;;;2.53;1.77;;;9.90;99.90;;;;;;5012215;28;20026;-74
2021/12/25 09:51:26;;;;;;;1.65;1.50;;;9.90;99.90;;;;;;5024568;28;20017;-74
2021/12/25 09:54:07;;;;;;;1.67;1.58;;;9.90;99.90;;;;;;5015319;28;20040;-75
2021/12/25 09:56:35;;;;;;;2.25;1.30;;;10.00;99.90;;;;;;5009324;28;20028;-73
2021/12/25 09:59:00;;;;;;;1.58;1.48;;;10.00;99.90;;;;;;5017479;28;20109;-74
2021/12/25 10:01:47;;;;;;;4.28;1.30;;;10.00;99.90;;;;;;5020198;28;20109;-74
2021/12/25 10:04:46;;;;;;;1.40;1.23;;;10.10;99.90;;;;;;5020150;28;20109;-75
2021/12/25 10:07:29;;;;;;;1.63;1.40;;;10.10;99.90;;;;;;5014531;28;20030;-75
2021/12/25 10:09:58;;;;;;;2.42;1.73;;;10.20;99.90;;;;;;5018077;28;20561;-75
2021/12/25 10:12:29;;;;;;;1.92;1.63;;;10.20;99.90;;;;;;5010418;28;20061;-75
2021/12/25 10:14:55;;;;;;;2.85;1.77;;;10.30;99.90;;;;;;5017390;28;20022;-74
2021/12/25 10:17:27;;;;;;;2.40;1.77;;;10.30;99.90;;;;;;5022369;28;20500;-73
2021/12/25 10:20:02;;;;;;;2.92;1.17;;;10.40;99.90;;;;;;5013328;28;20093;-74
2021/12/25 10:22:28;;;;;;;1.23;1.13;;;10.50;99.90;;;;;;5020346;28;20101;-74
2021/12/25 10:25:15;;;;;;;1.77;1.30;;;10.60;99.90;;;;;;5017027;28;20057;-74
2021/12/25 10:27:54;;;;;;;1.52;1.10;;;10.70;99.90;;;;;;5015242;28;20025;-74
2021/12/25 10:30:20;;;;;;;1.23;0.80;;;10.70;99.90;;;;;;5018221;28;20023;-76
2021/12/25 10:32:47;;;;;;;0.82;0.80;;;10.70;99.90;;;;;;5021112;28;20108;-74
2021/12/25 10:35:27;;;;;;;2.88;1.30;;;10.70;99.90;;;;;;5027442;28;20017;-76
2021/12/25 10:37:54;;;;;;;1.80;1.17;;;10.80;99.90;;;;;;5024831;28;20508;-74
2021/12/25 10:40:31;;;;;;;1.23;1.13;;;10.80;99.90;;;;;;5013726;28;20272;-74
2021/12/25 10:43:01;;;;;;;2.40;1.15;;;10.80;99.90;;;;;;5021800;28;20242;-74
2021/12/25 10:45:28;;;;;;;1.83;1.30;;;10.90;99.90;;;;;;5017128;28;20473;-74
2021/12/25 10:48:00;;;;;;;1.00;0.90;;;10.90;99.90;;;;;;5016239;28;20379;-75
2021/12/25 10:50:26;;;;;;;0.80;0.55;;;10.80;99.90;;;;;;5013345;28;20155;-74
2021/12/25 10:52:51;;;;;;;2.35;1.15;;;10.90;99.90;;;;;;5019215;28;20060;-74
2021/12/25 10:55:22;;;;;;;1.73;0.90;;;11.10;99.90;;;;;;5021727;28;20033;-77
2021/12/25 10:57:53;;;;;;;0.80;0.80;;;11.00;99.90;;;;;;5011793;28;20301;-76
2021/12/25 11:00:22;;;;;;;1.75;1.00;;;11.00;99.90;;;;;;5020682;28;20141;-77
2021/12/25 11:02:52;;;;;;;3.30;1.33;;;11.20;99.90;;;;;;5003445;28;20025;-78
2021/12/25 11:05:36;;;;;;;0.87;0.60;;;11.20;99.90;;;;;;5020115;28;20486;-78
2021/12/25 11:08:11;;;;;;;1.10;0.90;;;11.20;99.90;;;;;;5013018;28;20025;-78
2021/12/25 11:11:01;;;;;;;1.05;0.70;;;11.20;99.90;;;;;;5022941;28;20018;-78
2021/12/25 11:13:49;;;;;;;2.85;0.80;;;11.30;99.90;;;;;;5025021;28;20021;-80
2021/12/25 11:19:09;;;;;;;1.10;1.00;;;11.30;99.90;;;;;;5025745;28;20093;-78
2021/12/25 11:21:44;;;;;;;1.20;1.10;;;11.20;99.90;;;;;;5010300;28;20068;-77
2021/12/25 11:24:15;;;;;;;1.63;1.20;;;11.30;99.90;;;;;;5025313;28;20102;-79
2021/12/25 11:26:44;;;;;;;1.63;1.23;;;11.40;99.90;;;;;;5013053;28;20026;-78
2021/12/25 11:29:12;;;;;;;3.53;1.48;;;11.40;99.90;;;;;;5023719;28;20474;-78
2021/12/25 11:31:39;;;;;;;3.28;1.27;;;11.40;99.90;;;;;;5022544;28;20437;-77
2021/12/25 11:34:06;;;;;;;1.40;1.30;;;11.50;99.90;;;;;;5027302;28;20079;-78
2021/12/25 11:36:36;;;;;;;1.60;1.20;;;11.50;99.90;;;;;;5028675;28;20021;-76
2021/12/25 11:39:02;;;;;;;2.28;1.30;;;11.80;99.90;;;;;;5026782;28;20030;-78
2021/12/25 11:41:30;;;;;;;2.47;1.08;;;11.70;99.90;;;;;;5020897;28;20069;-77
2021/12/25 11:43:55;;;;;;;1.10;1.00;;;11.50;99.90;;;;;;5025867;28;20029;-79
2021/12/25 11:46:23;;;;;;;1.60;1.10;;;11.30;99.90;;;;;;5023588;28;21864;-76
2021/12/25 11:49:07;;;;;;;1.67;0.90;;;11.40;99.90;;;;;;5016765;28;20466;-77
2021/12/25 11:51:33;;;;;;;1.52;1.27;;;11.30;99.90;;;;;;5013752;28;20022;-77
2021/12/25 11:58:54;;;;;;;1.65;1.20;;;11.10;99.90;;;;;;5028707;28;20508;-75
2021/12/25 12:01:25;;;;;;;1.55;1.35;;;11.20;99.90;;;;;;5018327;28;20099;-77
2021/12/25 12:04:00;;;;;;;1.42;1.10;;;11.10;99.90;;;;;;5028297;28;20022;-76
2021/12/25 12:06:44;;;;;;;1.88;1.20;;;11.10;99.90;;;;;;5014956;28;20025;-77
2021/12/25 12:09:12;;;;;;;1.40;1.27;;;11.10;99.90;;;;;;5030504;28;20022;-77
2021/12/25 12:11:40;;;;;;;1.92;1.38;;;11.10;99.90;;;;;;5025497;28;20485;-77
2021/12/25 12:14:11;;;;;;;2.50;1.20;;;11.00;99.90;;;;;;5025035;28;20532;-79
2021/12/25 12:16:44;;;;;;;1.38;1.23;;;11.00;99.90;;;;;;5025789;28;20046;-77
2021/12/25 12:19:31;;;;;;;1.77;1.33;;;11.00;99.90;;;;;;5026705;28;20092;-78
2021/12/25 12:21:59;;;;;;;1.80;1.23;;;10.90;99.90;;;;;;5034393;28;20065;-79
2021/12/25 12:27:03;;;;;;;1.67;1.58;;;10.80;99.90;;;;;;5040642;28;20104;-78
2021/12/25 12:29:52;;;;;;;2.03;1.20;;;10.70;99.90;;;;;;5029149;28;20021;-79
2021/12/25 12:32:20;;;;;;;2.50;0.98;;;10.70;99.90;;;;;;5030963;28;20025;-79
2021/12/25 12:34:47;;;;;;;2.50;1.08;;;10.70;99.90;;;;;;5027408;28;20040;-79
2021/12/25 12:37:16;;;;;;;1.35;1.25;;;10.60;99.90;;;;;;5028772;28;20025;-78
2021/12/25 12:40:05;;;;;;;1.77;1.50;;;10.60;99.90;;;;;;5022383;28;20338;-78
2021/12/25 12:42:47;;;;;;;1.67;1.30;;;10.50;99.90;;;;;;5006584;28;20022;-80
2021/12/25 12:45:34;;;;;;;2.10;1.60;;;10.50;99.90;;;;;;5028713;28;20022;-77
2021/12/25 12:48:14;;;;;;;2.47;1.63;;;10.50;99.90;;;;;;5024944;28;20371;-78
2021/12/25 12:50:51;;;;;;;1.98;1.75;;;10.50;99.90;;;;;;5025992;28;20390;-79
2021/12/25 12:53:18;;;;;;;4.13;1.55;;;10.40;99.90;;;;;;5017829;28;20494;-78
2021/12/25 12:55:47;;;;;;;3.38;2.20;;;10.50;99.90;;;;;;5026533;28;20042;-79
2021/12/25 12:58:23;;;;;;;1.65;1.55;;;10.50;99.90;;;;;;5022976;28;20123;-77
2021/12/25 13:00:50;;;;;;;4.60;1.80;;;10.50;99.90;;;;;;5012751;28;20050;-78
2021/12/25 13:03:16;;;;;;;1.60;1.38;;;10.50;99.90;;;;;;5020721;28;20029;-78
2021/12/25 13:05:52;;;;;;;2.58;1.73;;;10.50;99.90;;;;;;5014435;28;20367;-80
2021/12/25 13:08:25;;;;;;;2.15;1.60;;;10.50;99.90;;;;;;5021305;28;20029;-80
2021/12/25 13:10:53;;;;;;;2.33;1.55;;;10.40;99.90;;;;;;5014795;28;20021;-77
2021/12/25 13:13:29;;;;;;;2.05;1.73;;;10.40;99.90;;;;;;5023807;28;20040;-81
2021/12/25 13:15:58;;;;;;;2.55;1.95;;;10.40;99.90;;;;;;5017993;28;20030;-78
2021/12/25 13:18:37;;;;;;;1.85;1.73;;;10.40;99.90;;;;;;5035686;28;20053;-77
2021/12/25 13:21:08;;;;;;;2.67;2.08;;;10.30;99.90;;;;;;5025198;28;20038;-79
2021/12/25 13:23:38;;;;;;;2.45;2.10;;;10.30;99.90;;;;;;5025066;28;20017;-77
2021/12/25 13:26:07;;;;;;;2.42;1.98;;;10.20;99.90;;;;;;5019280;28;20022;-79
2021/12/25 13:28:35;;;;;;;5.85;2.20;;;10.10;99.90;;;;;;5028459;28;20064;-78
2021/12/25 13:31:09;;;;;;;2.28;2.05;;;10.00;99.90;;;;;;5020725;28;20022;-80
2021/12/25 13:33:42;;;;;;;2.08;1.88;;;9.90;99.90;;;;;;5027766;28;20029;-77
2021/12/25 13:36:10;;;;;;;2.33;2.13;;;9.80;99.90;;;;;;5017418;28;20069;-80
2021/12/25 13:39:09;;;;;;;5.65;2.63;;;9.80;99.90;;;;;;5019294;28;20060;-79
2021/12/25 13:41:43;;;;;;;2.88;2.50;;;9.70;99.90;;;;;;5026328;28;20071;-78
2021/12/25 13:44:16;;;;;;;3.63;2.17;;;9.60;99.90;;;;;;5026526;28;20133;-78
2021/12/25 13:46:47;;;;;;;3.00;2.78;;;9.70;99.90;;;;;;5026210;28;20018;-77
2021/12/25 13:49:34;;;;;;;3.33;3.00;;;9.60;99.90;;;;;;5015445;28;20022;-77
2021/12/25 13:52:06;;;;;;;2.78;2.47;;;9.70;99.90;;;;;;5011624;28;20269;-79
2021/12/25 13:54:32;;;;;;;4.18;2.80;;;9.60;99.90;;;;;;5013183;28;20022;-78
2021/12/25 13:56:58;;;;;;;3.33;2.80;;;9.60;99.90;;;;;;5022405;28;20026;-78
2021/12/25 13:59:24;;;;;;;3.00;2.70;;;9.60;99.90;;;;;;5016036;28;20071;-79
2021/12/25 14:02:05;;;;;;;3.28;2.55;;;9.50;99.90;;;;;;5024922;28;20025;-79
2021/12/25 14:04:35;;;;;;;3.45;2.72;;;9.60;99.90;;;;;;5034866;28;20100;-78
2021/12/25 14:07:01;;;;;;;9.40;3.65;;;9.60;99.90;;;;;;5025590;28;20041;-79
2021/12/25 14:09:26;;;;;;;3.33;2.92;;;9.60;99.90;;;;;;5024737;28;20378;-78
2021/12/25 14:11:55;;;;;;;4.00;3.05;;;9.70;99.90;;;;;;5025121;28;20075;-77
2021/12/25 14:14:23;;;;;;;3.53;3.22;;;9.60;99.90;;;;;;5042639;28;20047;-77
2021/12/25 14:16:49;;;;;;;5.30;4.03;;;9.60;99.90;;;;;;5017349;28;20065;-78
2021/12/25 14:19:15;;;;;;;4.55;3.75;;;9.60;99.90;;;;;;5020438;28;20021;-77
2021/12/25 14:21:55;;;;;;;3.80;3.38;;;9.70;99.90;;;;;;5022948;28;20022;-78
2021/12/25 14:24:21;;;;;;;3.95;3.58;;;9.60;99.90;;;;;;5017502;28;20410;-77